Time;durP1;ratioP1;P1;durP2;ratioP2;P2;SDS_P1;SDS_P2;PMS_P1;PMS_P2;Temp;Humidity;BMP_temperature;BMP_pressure;BME280_temperature;BME280_humidity;BME280_pressure;Samples;Min_cycle;Max_cycle;Signal;HPM_P1;HPM_P2
2021/11/18 00:00:35;;;;;;;34.48;23.15;;;;;;;6.67;75.59;100899.05;2217779;79;31833;-70
2021/11/18 00:03:39;;;;;;;34.23;22.77;;;;;;;6.67;75.66;100894.16;2195182;80;27986;-71
2021/11/18 00:06:44;;;;;;;37.03;23.40;;;;;;;6.70;75.77;100894.09;2195130;81;29299;-71
2021/11/18 00:09:44;;;;;;;34.43;22.65;;;;;;;6.72;75.74;100890.94;2225231;78;27698;-70
2021/11/18 00:12:47;;;;;;;30.82;21.50;;;;;;;6.72;75.78;100890.94;2238562;79;28670;-69
2021/11/18 00:15:49;;;;;;;33.23;22.05;;;;;;;6.74;75.82;100886.45;2239662;79;31185;-70
2021/11/18 00:18:51;;;;;;;34.15;21.55;;;;;;;6.76;75.90;100887.73;2238148;79;33008;-69
2021/11/18 00:21:53;;;;;;;35.17;21.68;;;;;;;6.76;75.88;100895.28;2257818;78;29821;-69
2021/11/18 00:24:55;;;;;;;30.90;21.05;;;;;;;6.77;75.94;100897.04;2259997;78;27726;-70
2021/11/18 00:27:56;;;;;;;33.98;20.62;;;;;;;6.80;75.98;100892.08;2241457;78;28728;-70
2021/11/18 00:30:59;;;;;;;32.95;20.17;;;;;;;6.82;76.04;100900.44;2219644;79;31113;-70
2021/11/18 00:34:02;;;;;;;33.60;20.85;;;;;;;6.84;76.04;100905.28;2218880;80;33760;-70
2021/11/18 00:37:04;;;;;;;27.05;19.52;;;;;;;6.84;76.02;100903.95;2234809;79;29080;-71
2021/11/18 00:40:07;;;;;;;31.25;19.80;;;;;;;6.86;76.05;100903.93;2244607;78;27558;-71
2021/11/18 00:43:12;;;;;;;29.95;19.32;;;;;;;6.88;76.05;100901.22;2260068;78;29468;-70
2021/11/18 00:46:14;;;;;;;21.60;14.80;;;;;;;6.90;76.07;100903.39;2177776;81;31738;-71
2021/11/18 00:49:16;;;;;;;30.37;19.32;;;;;;;6.91;76.09;100910.47;2205618;79;33781;-70
2021/11/18 00:52:17;;;;;;;28.52;20.08;;;;;;;6.91;76.12;100910.47;2239910;79;29001;-69
2021/11/18 00:55:20;;;;;;;28.00;20.30;;;;;;;6.91;76.08;100911.33;2240028;79;27699;-70
2021/11/18 00:58:22;;;;;;;28.57;18.95;;;;;;;6.90;75.99;100919.38;2230699;79;28650;-71
2021/11/18 01:01:28;;;;;;;30.57;20.08;;;;;;;6.91;76.08;100927.78;2216366;80;30984;-71
2021/11/18 01:04:31;;;;;;;31.30;19.98;;;;;;;6.90;76.05;100917.56;2216094;80;32121;-70
2021/11/18 01:07:33;;;;;;;32.10;19.65;;;;;;;6.92;76.15;100921.08;2217488;79;28904;-72
2021/11/18 01:10:46;;;;;;;30.05;19.70;;;;;;;6.92;76.07;100923.73;2217307;79;27627;-72
2021/11/18 01:13:49;;;;;;;28.35;19.10;;;;;;;6.91;76.03;100923.78;2209405;80;28838;-72
2021/11/18 01:16:52;;;;;;;30.27;17.98;;;;;;;6.93;76.12;100920.16;2166367;82;31042;-70
2021/11/18 01:19:54;;;;;;;30.62;18.15;;;;;;;6.90;75.96;100913.57;2166925;80;32958;-73
2021/11/18 01:22:58;;;;;;;26.70;17.17;;;;;;;6.90;76.03;100913.57;2209402;80;29031;-72
2021/11/18 01:26:00;;;;;;;27.52;17.25;;;;;;;6.88;75.96;100914.06;2209654;79;37089;-71
2021/11/18 01:29:04;;;;;;;32.63;16.48;;;;;;;6.84;75.83;100915.94;2210472;78;28647;-73
2021/11/18 01:32:06;;;;;;;24.55;16.52;;;;;;;6.80;75.75;100926.70;2209209;80;30998;-71
2021/11/18 01:35:08;;;;;;;26.45;17.65;;;;;;;6.75;75.79;100938.80;2209162;80;33811;-71
2021/11/18 01:38:11;;;;;;;23.70;16.10;;;;;;;6.71;75.77;100944.21;2210335;79;29861;-70
2021/11/18 01:41:21;;;;;;;26.37;16.85;;;;;;;6.65;75.79;100935.47;2247789;79;27662;-70
2021/11/18 01:44:33;;;;;;;25.27;15.90;;;;;;;6.61;75.78;100936.45;2247831;79;29381;-71
2021/11/18 01:47:35;;;;;;;23.27;14.53;;;;;;;6.57;75.80;100933.90;2249035;79;31222;-73
2021/11/18 01:50:41;;;;;;;25.05;16.17;;;;;;;6.49;75.77;100944.72;2215035;79;33804;-72
2021/11/18 01:53:46;;;;;;;27.37;16.60;;;;;;;6.44;75.83;100950.59;2176927;80;29029;-74
2021/11/18 01:56:48;;;;;;;21.70;15.85;;;;;;;6.38;75.94;100953.80;2171446;80;27515;-73
2021/11/18 01:59:50;;;;;;;26.97;15.32;;;;;;;6.40;76.11;100955.11;2247726;78;28629;-71
2021/11/18 02:02:52;;;;;;;28.02;14.40;;;;;;;6.40;76.21;100963.09;2248826;79;31025;-72
2021/11/18 02:05:59;;;;;;;26.77;15.65;;;;;;;6.37;76.18;100955.17;2248143;79;32990;-72
2021/11/18 02:09:03;;;;;;;27.15;14.90;;;;;;;6.38;76.05;100959.12;2226069;79;29062;-73
2021/11/18 02:12:10;;;;;;;29.17;15.97;;;;;;;6.35;75.97;100962.31;2255269;78;27706;-72
2021/11/18 02:15:20;;;;;;;25.20;16.02;;;;;;;6.31;76.04;100960.61;2220295;78;28680;-73
2021/11/18 02:18:30;;;;;;;26.00;15.18;;;;;;;6.30;76.13;100958.86;2215497;78;31260;-74
2021/11/18 02:21:31;;;;;;;23.62;14.50;;;;;;;6.27;76.19;100964.27;2176032;81;33125;-71
2021/11/18 02:24:41;;;;;;;28.47;15.25;;;;;;;6.23;76.16;100964.33;2150829;81;28450;-71
2021/11/18 02:27:42;;;;;;;31.70;14.75;;;;;;;6.21;76.17;100971.47;2175543;81;27773;-71
2021/11/18 02:30:45;;;;;;;25.95;14.83;;;;;;;6.21;76.24;100973.23;2174921;81;28899;-71
2021/11/18 02:33:48;;;;;;;26.50;13.50;;;;;;;6.22;76.33;100973.22;2214644;80;31704;-71
2021/11/18 02:36:50;;;;;;;24.45;13.45;;;;;;;6.25;76.41;100975.40;2188497;80;33189;-70
2021/11/18 02:39:52;;;;;;;29.98;14.65;;;;;;;6.25;76.37;100974.93;2176108;80;29813;-71
2021/11/18 02:42:56;;;;;;;21.42;12.58;;;;;;;6.29;76.43;100974.44;2163024;81;27829;-72
2021/11/18 02:45:57;;;;;;;24.18;12.35;;;;;;;6.31;76.41;100972.59;2137806;81;28100;-71
2021/11/18 02:48:59;;;;;;;20.35;12.88;;;;;;;6.36;76.43;100973.38;2156339;81;30996;-72
2021/11/18 02:52:01;;;;;;;23.00;13.72;;;;;;;6.40;76.41;100972.41;2156456;81;33134;-72
2021/11/18 02:55:11;;;;;;;25.05;12.35;;;;;;;6.43;76.38;100969.69;2156268;82;29024;-72
2021/11/18 02:58:15;;;;;;;20.05;12.00;;;;;;;6.48;76.44;100985.55;2185096;81;27738;-71
2021/11/18 03:01:22;;;;;;;20.20;12.43;;;;;;;6.50;76.33;100977.08;2182830;81;28767;-70
2021/11/18 03:04:23;;;;;;;22.10;11.68;;;;;;;6.53;76.35;100977.02;2179765;81;31024;-69
2021/11/18 03:07:25;;;;;;;17.87;11.93;;;;;;;6.57;76.22;100979.16;2156447;82;32927;-71
2021/11/18 03:10:28;;;;;;;17.42;11.68;;;;;;;6.56;76.12;100978.26;2155818;82;29163;-72
2021/11/18 03:13:34;;;;;;;20.20;11.65;;;;;;;6.56;76.13;100980.92;2145142;82;27618;-73
2021/11/18 03:16:36;;;;;;;20.48;11.12;;;;;;;6.59;76.12;100983.99;2154816;82;28746;-71
2021/11/18 03:19:39;;;;;;;23.57;11.90;;;;;;;6.60;76.09;100982.61;2157076;82;30462;-71
2021/11/18 03:22:41;;;;;;;21.52;11.53;;;;;;;6.62;76.14;100982.13;2156779;82;32998;-71
2021/11/18 03:25:52;;;;;;;20.08;10.53;;;;;;;6.65;76.12;100989.16;2156200;82;29800;-69
2021/11/18 03:28:54;;;;;;;21.10;10.82;;;;;;;6.68;76.06;100993.98;2157516;82;27770;-70
2021/11/18 03:31:55;;;;;;;18.35;11.22;;;;;;;6.69;76.03;100994.41;2157254;82;29438;-70
2021/11/18 03:34:57;;;;;;;24.80;12.43;;;;;;;6.73;76.04;100996.54;2139472;82;31996;-68
2021/11/18 03:38:00;;;;;;;20.97;10.78;;;;;;;6.76;75.95;100994.25;2157086;82;32979;-70
2021/11/18 03:41:04;;;;;;;20.20;10.63;;;;;;;6.76;75.87;100989.81;2157099;82;29848;-69
2021/11/18 03:44:08;;;;;;;26.70;11.50;;;;;;;6.77;75.93;100997.34;2140595;82;27685;-69
2021/11/18 03:47:13;;;;;;;23.40;10.18;;;;;;;6.79;75.92;101003.04;2120998;82;28676;-68
2021/11/18 03:50:15;;;;;;;20.65;10.13;;;;;;;6.80;75.93;101010.12;2120946;82;31672;-72
2021/11/18 03:53:18;;;;;;;23.05;10.53;;;;;;;6.83;75.88;101011.39;2120492;84;33924;-72
2021/11/18 03:56:25;;;;;;;23.95;10.13;;;;;;;6.85;75.78;100996.72;2121328;82;29217;-72
2021/11/18 03:59:31;;;;;;;22.73;9.85;;;;;;;6.86;75.93;100989.16;2120756;84;27686;-71
2021/11/18 04:02:33;;;;;;;18.98;10.50;;;;;;;6.88;75.93;100993.96;2120691;84;29519;-70
2021/11/18 04:05:36;;;;;;;19.57;10.30;;;;;;;6.84;75.85;100997.16;2146731;82;31873;-72
2021/11/18 04:08:38;;;;;;;23.70;11.53;;;;;;;6.82;75.83;100999.45;2156886;82;33175;-71
2021/11/18 04:11:42;;;;;;;20.12;10.45;;;;;;;6.78;75.92;101007.97;2161012;81;29924;-72
2021/11/18 04:14:44;;;;;;;20.37;10.90;;;;;;;6.77;75.94;101012.87;2144186;81;27688;-72
2021/11/18 04:17:46;;;;;;;23.50;11.48;;;;;;;6.74;75.93;101008.95;2155299;82;28686;-73
2021/11/18 04:20:51;;;;;;;24.37;10.32;;;;;;;6.74;75.93;101008.05;2167543;82;30696;-71
2021/11/18 04:23:53;;;;;;;19.82;10.23;;;;;;;6.70;75.88;101007.25;2168403;81;33025;-73
2021/11/18 04:26:55;;;;;;;21.55;9.98;;;;;;;6.68;75.85;101011.73;2173196;81;29024;-73
2021/11/18 04:29:56;;;;;;;26.77;10.95;;;;;;;6.62;75.83;101010.09;2173456;81;27657;-71
2021/11/18 04:32:58;;;;;;;22.77;11.40;;;;;;;6.61;75.85;101004.81;2173226;81;29666;-70
2021/11/18 04:36:01;;;;;;;21.35;10.28;;;;;;;6.60;75.96;101016.36;2175655;81;31012;-70
2021/11/18 04:39:07;;;;;;;18.52;9.83;;;;;;;6.60;76.01;101007.05;2176169;81;32895;-68
2021/11/18 04:42:09;;;;;;;23.45;10.50;;;;;;;6.60;76.03;101003.05;2119587;82;29185;-70
2021/11/18 04:45:15;;;;;;;22.45;10.18;;;;;;;6.60;76.01;101005.24;2127359;83;27633;-70
2021/11/18 04:48:17;;;;;;;19.12;9.83;;;;;;;6.57;76.02;101002.64;2173262;81;28649;-70
2021/11/18 04:51:22;;;;;;;27.98;11.22;;;;;;;6.55;76.02;101011.11;2139144;83;31762;-70
2021/11/18 04:54:24;;;;;;;;;;;;;;;6.54;76.08;101005.36;2174068;81;33181;-70
2021/11/18 04:57:28;;;;;;;19.67;9.70;;;;;;;6.54;76.06;101016.02;2165779;82;29190;-70
2021/11/18 05:00:35;;;;;;;18.98;9.98;;;;;;;6.51;76.02;101011.64;2160506;82;28195;-70
2021/11/18 05:03:37;;;;;;;24.12;10.75;;;;;;;6.49;76.03;101009.47;2176990;81;28727;-70
2021/11/18 05:06:39;;;;;;;18.42;11.57;;;;;;;6.47;76.04;101013.94;2155111;82;32020;-69
2021/11/18 05:09:41;;;;;;;25.17;13.78;;;;;;;6.44;76.06;101020.69;2162606;82;33758;-70
2021/11/18 05:12:44;;;;;;;21.60;12.80;;;;;;;6.42;76.04;101014.95;2145850;82;29048;-71
2021/11/18 05:15:48;;;;;;;21.60;9.90;;;;;;;6.40;76.01;101020.31;2140299;83;27741;-71
2021/11/18 05:18:50;;;;;;;23.73;10.00;;;;;;;6.36;75.99;101019.95;2141004;81;28817;-70
2021/11/18 05:21:52;;;;;;;18.65;10.20;;;;;;;6.34;76.00;101031.08;2150868;82;31871;-69
2021/11/18 05:24:54;;;;;;;24.12;8.90;;;;;;;6.32;76.02;101031.55;2187816;81;32935;-69
2021/11/18 05:27:57;;;;;;;19.48;10.18;;;;;;;6.30;75.99;101040.02;2160640;81;29821;-70
2021/11/18 05:31:00;;;;;;;20.15;10.82;;;;;;;6.28;76.07;101045.85;2139743;81;27676;-69
2021/11/18 05:34:02;;;;;;;31.00;9.93;;;;;;;6.27;76.11;101037.45;2138602;82;28664;-68
2021/11/18 05:37:04;;;;;;;22.40;9.48;;;;;;;6.28;76.13;101044.52;2140347;81;31029;-68
2021/11/18 05:40:09;;;;;;;23.20;9.43;;;;;;;6.29;76.21;101050.27;2140796;81;32978;-69
2021/11/18 05:43:11;;;;;;;19.32;9.73;;;;;;;6.29;76.20;101049.80;2175368;81;29200;-69
2021/11/18 05:46:16;;;;;;;17.77;9.65;;;;;;;6.31;76.26;101046.66;2243298;79;27717;-70
2021/11/18 05:49:18;;;;;;;25.55;9.85;;;;;;;6.33;76.20;101043.52;2181442;80;28661;-69
2021/11/18 05:52:20;;;;;;;24.90;10.55;;;;;;;6.36;76.23;101030.59;2237145;79;30981;-69
2021/11/18 05:55:26;;;;;;;26.33;10.32;;;;;;;6.38;76.22;101041.62;2229371;78;33802;-69
2021/11/18 05:58:28;;;;;;;22.27;9.90;;;;;;;6.43;76.20;101040.66;2208946;80;29076;-69
2021/11/18 06:01:30;;;;;;;24.23;9.18;;;;;;;6.47;76.17;101048.55;2227039;79;27732;-70
2021/11/18 06:04:31;;;;;;;25.43;10.63;;;;;;;6.51;76.15;101050.23;2244165;79;28719;-70
2021/11/18 06:07:34;;;;;;;21.90;11.10;;;;;;;6.54;76.12;101050.62;2249001;79;30992;-69
2021/11/18 06:10:35;;;;;;;25.00;9.33;;;;;;;6.59;76.11;101055.88;2213024;79;33834;-69
2021/11/18 06:13:38;;;;;;;18.25;10.20;;;;;;;6.64;76.07;101061.95;2214364;78;28465;-67
2021/11/18 06:16:40;;;;;;;27.52;10.03;;;;;;;6.67;76.00;101068.55;2233514;78;27676;-65
2021/11/18 06:19:42;;;;;;;22.07;9.35;;;;;;;6.73;75.94;101064.44;2243201;78;28629;-65
2021/11/18 06:22:46;;;;;;;21.33;10.25;;;;;;;6.78;75.95;101078.55;2246871;78;31066;-64
2021/11/18 06:25:49;;;;;;;19.48;9.10;;;;;;;6.85;75.79;101068.63;2222417;79;32968;-64
2021/11/18 06:28:52;;;;;;;24.05;8.48;;;;;;;6.92;75.86;101073.37;2219683;80;29008;-67
2021/11/18 06:31:56;;;;;;;21.17;9.63;;;;;;;6.97;75.79;101088.34;2251820;78;27627;-65
2021/11/18 06:34:58;;;;;;;24.47;10.78;;;;;;;7.03;75.73;101083.80;2263606;78;29794;-65
2021/11/18 06:38:00;;;;;;;20.70;10.30;;;;;;;7.07;75.60;101086.78;2263558;78;32022;-68
2021/11/18 06:41:02;;;;;;;20.23;9.15;;;;;;;7.09;75.52;101083.20;2254024;78;33873;-62
2021/11/18 06:44:05;;;;;;;20.50;10.13;;;;;;;7.13;75.46;101094.19;2219502;80;29957;-65
2021/11/18 06:47:08;;;;;;;18.65;9.63;;;;;;;7.18;75.39;101094.10;2219705;80;27675;-65
2021/11/18 06:50:11;;;;;;;19.45;9.88;;;;;;;7.24;75.38;101097.94;2219383;80;29261;-65
2021/11/18 06:53:14;;;;;;;21.17;10.65;;;;;;;7.26;75.22;101100.12;2219506;80;31706;-66
2021/11/18 06:56:17;;;;;;;21.27;10.43;;;;;;;7.32;75.22;101100.42;2219750;79;32990;-66
2021/11/18 06:59:18;;;;;;;25.90;11.53;;;;;;;7.35;75.07;101108.36;2218862;80;29830;-66
2021/11/18 07:02:20;;;;;;;24.80;10.70;;;;;;;7.39;74.99;101090.05;2219607;80;27625;-64
2021/11/18 07:05:23;;;;;;;23.70;11.30;;;;;;;7.44;74.87;101097.50;2219923;78;29890;-64
2021/11/18 07:08:25;;;;;;;23.12;10.30;;;;;;;7.44;74.74;101090.83;2236009;78;31112;-64
2021/11/18 07:11:27;;;;;;;20.20;10.40;;;;;;;7.51;74.75;101106.22;2259875;78;33328;-64
2021/11/18 07:14:29;;;;;;;22.40;10.43;;;;;;;7.55;74.60;101103.88;2249539;78;28893;-65
2021/11/18 07:17:31;;;;;;;24.47;9.98;;;;;;;7.58;74.63;101097.14;2216165;79;27675;-65
2021/11/18 07:20:33;;;;;;;19.32;10.15;;;;;;;7.64;74.56;101095.25;2208124;79;28667;-65
2021/11/18 07:23:38;;;;;;;19.60;9.13;;;;;;;7.70;74.34;101109.75;2209000;80;31905;-65
2021/11/18 07:26:40;;;;;;;22.98;11.68;;;;;;;7.72;74.28;101102.15;2209133;80;32983;-64
2021/11/18 07:29:42;;;;;;;18.73;10.08;;;;;;;7.78;74.35;101103.78;2207348;79;30197;-64
2021/11/18 07:32:44;;;;;;;21.30;9.48;;;;;;;7.84;74.29;101105.41;2228606;79;27705;-64
2021/11/18 07:35:47;;;;;;;20.35;10.85;;;;;;;7.86;73.98;101100.45;2247849;79;30022;-64
2021/11/18 07:38:49;;;;;;;15.53;8.15;;;;;;;7.90;73.92;101095.94;2248904;79;31378;-64
2021/11/18 07:41:53;;;;;;;19.00;9.63;;;;;;;7.99;73.77;101107.69;2248542;79;34173;-64
2021/11/18 07:44:55;;;;;;;15.27;6.90;;;;;;;8.02;73.71;101100.94;2249340;79;29190;-65
2021/11/18 07:47:57;;;;;;;17.57;7.78;;;;;;;8.07;73.54;101108.82;2249119;79;27745;-65
2021/11/18 07:51:00;;;;;;;24.40;9.10;;;;;;;8.12;73.51;101112.25;2240749;79;29071;-65
2021/11/18 07:54:02;;;;;;;24.35;10.60;;;;;;;8.17;73.51;101105.45;2170044;80;32029;-65
2021/11/18 07:57:04;;;;;;;21.05;8.68;;;;;;;8.21;73.33;101101.80;2209040;80;34154;-64
2021/11/18 08:00:11;;;;;;;23.83;9.35;;;;;;;8.23;73.20;101111.98;2209005;79;30201;-65
2021/11/18 08:03:14;;;;;;;21.17;9.05;;;;;;;8.25;73.20;101118.59;2209432;80;27783;-65
2021/11/18 08:06:21;;;;;;;17.20;8.73;;;;;;;8.24;73.04;101119.52;2209332;79;29620;-64
2021/11/18 08:09:23;;;;;;;30.45;11.93;;;;;;;8.24;73.07;101132.42;2209299;79;32043;-65
2021/11/18 08:12:26;;;;;;;27.82;16.37;;;;;;;8.25;73.00;101137.28;2209077;79;33512;-66
2021/11/18 08:15:28;;;;;;;25.08;10.58;;;;;;;8.24;73.01;101129.75;2226697;79;29897;-65
2021/11/18 08:18:31;;;;;;;16.37;8.53;;;;;;;8.27;72.96;101117.66;2226716;80;27545;-65
2021/11/18 08:21:35;;;;;;;20.82;8.33;;;;;;;8.26;72.79;101128.36;2216629;80;29903;-65
2021/11/18 08:24:38;;;;;;;23.27;8.65;;;;;;;8.26;72.90;101132.36;2212427;79;31020;-65
2021/11/18 08:27:42;;;;;;;12.80;8.15;;;;;;;8.27;72.83;101141.69;2226112;79;34090;-65
2021/11/18 08:30:44;;;;;;;22.48;8.80;;;;;;;8.31;72.86;101149.14;2226025;79;30176;-65
2021/11/18 08:33:47;;;;;;;21.60;9.03;;;;;;;8.35;72.80;101144.15;2226982;79;27691;-65
2021/11/18 08:36:50;;;;;;;19.12;8.75;;;;;;;8.42;72.88;101146.19;2226307;79;30068;-65
2021/11/18 08:39:53;;;;;;;21.68;9.08;;;;;;;8.48;72.61;101158.95;2224943;79;31009;-65
2021/11/18 08:42:55;;;;;;;22.15;8.03;;;;;;;8.50;72.36;101159.78;2236708;79;34159;-66
2021/11/18 08:45:58;;;;;;;20.97;8.18;;;;;;;8.54;72.42;101174.36;2140715;82;30429;-66
2021/11/18 08:49:01;;;;;;;21.68;7.90;;;;;;;8.61;72.56;101183.98;2139702;83;28096;-65
2021/11/18 08:52:08;;;;;;;14.45;7.40;;;;;;;8.71;72.42;101189.95;2104247;84;29923;-65
2021/11/18 08:55:15;;;;;;;19.07;8.10;;;;;;;8.80;72.27;101197.25;2140053;83;31039;-65
2021/11/18 08:58:21;;;;;;;19.80;8.65;;;;;;;8.90;72.18;101197.88;2104528;84;33155;-66
2021/11/18 09:01:41;;;;;;;22.55;9.43;;;;;;;9.01;72.00;101198.91;2157160;81;29065;-66
2021/11/18 09:04:43;;;;;;;17.62;7.53;;;;;;;9.15;71.85;101207.84;2139604;82;27732;-65
2021/11/18 09:07:44;;;;;;;21.45;9.38;;;;;;;9.26;71.83;101218.23;2179375;81;29908;-66
2021/11/18 09:10:48;;;;;;;17.60;7.83;;;;;;;9.40;71.61;101213.34;2178845;81;32242;-65
2021/11/18 09:13:52;;;;;;;18.92;7.28;;;;;;;9.50;71.33;101217.95;2138231;81;32862;-66
2021/11/18 09:16:54;;;;;;;18.57;6.08;;;;;;;9.59;71.31;101215.47;2240084;79;29981;-66
2021/11/18 09:19:56;;;;;;;23.18;7.42;;;;;;;9.71;70.71;101221.77;2248480;79;27563;-66
2021/11/18 09:22:59;;;;;;;21.93;7.28;;;;;;;9.77;70.59;101217.16;2248597;79;29858;-66
2021/11/18 09:26:02;;;;;;;21.02;6.55;;;;;;;9.81;70.68;101203.63;2248983;79;31379;-66
2021/11/18 09:29:06;;;;;;;14.13;6.40;;;;;;;9.85;70.17;101195.02;2222488;79;33759;-66
2021/11/18 09:32:08;;;;;;;17.23;6.60;;;;;;;9.84;70.07;101187.95;2222690;79;29872;-67
2021/11/18 09:35:14;;;;;;;21.20;6.55;;;;;;;9.80;70.11;101184.48;2248767;79;27650;-66
2021/11/18 09:38:19;;;;;;;15.50;6.25;;;;;;;9.85;70.15;101189.67;2248097;79;28666;-66
2021/11/18 09:41:29;;;;;;;15.25;6.12;;;;;;;9.97;69.96;101183.05;2249201;79;31187;-66
2021/11/18 09:44:51;;;;;;;14.47;5.25;;;;;;;10.06;70.15;101185.89;2247489;79;34280;-66
2021/11/18 09:48:16;;;;;;;17.90;6.42;;;;;;;10.17;69.80;101189.11;2217534;79;29559;-66
2021/11/18 09:51:43;;;;;;;17.37;5.67;;;;;;;10.29;69.84;101181.98;2209484;79;27743;-66
2021/11/18 09:55:10;;;;;;;23.92;5.40;;;;;;;10.42;69.51;101174.89;2188588;81;29502;-65
2021/11/18 09:58:39;;;;;;;16.77;6.70;;;;;;;10.53;68.96;101169.16;2143479;83;30462;-65
2021/11/18 10:02:20;;;;;;;20.35;5.17;;;;;;;10.61;69.12;101170.64;2122356;82;34437;-66
2021/11/18 10:05:30;;;;;;;15.72;5.08;;;;;;;10.68;68.76;101165.03;2125465;83;29043;-65
2021/11/18 10:08:37;;;;;;;19.12;6.05;;;;;;;10.71;68.23;101160.47;2125587;83;27893;-65
2021/11/18 10:12:22;;;;;;;18.15;5.17;;;;;;;10.71;68.40;101159.57;2125362;83;28809;-65
2021/11/18 10:15:29;;;;;;;12.53;5.00;;;;;;;10.66;68.34;101154.38;2125126;83;31036;-65
2021/11/18 10:18:40;;;;;;;16.80;5.17;;;;;;;10.59;68.11;101149.72;2126591;82;33007;-65
2021/11/18 10:21:44;;;;;;;15.50;5.40;;;;;;;10.51;67.91;101138.86;2125364;83;29451;-64
2021/11/18 10:24:49;;;;;;;32.15;16.93;;;;;;;10.40;67.86;101150.84;2125135;83;27779;-65
2021/11/18 10:27:57;;;;;;;;;;;;;;;10.40;68.14;101162.91;2023270;88;28641;-65
2021/11/18 10:31:28;;;;;;;22.02;10.82;;;;;;;10.46;68.05;101178.73;2020841;87;31369;-65
2021/11/18 10:34:57;;;;;;;17.85;5.20;;;;;;;10.44;67.76;101163.66;2029569;87;34172;-66
2021/11/18 10:38:33;;;;;;;14.50;5.50;;;;;;;10.39;67.82;101164.27;2028932;87;29852;-65
2021/11/18 10:41:36;;;;;;;25.65;6.22;;;;;;;10.43;67.94;101161.91;2030315;87;28245;-65
2021/11/18 10:44:54;;;;;;;11.12;4.22;;;;;;;10.59;68.19;101157.75;2029878;87;29902;-65
2021/11/18 10:48:03;;;;;;;26.10;6.60;;;;;;;10.72;67.74;101146.58;1996651;88;31480;-65
2021/11/18 10:51:10;;;;;;;20.02;5.35;;;;;;;10.77;67.45;101126.72;1973592;90;33053;-64
2021/11/18 10:54:15;;;;;;;13.05;4.42;;;;;;;10.82;67.32;101125.23;1995197;89;29811;-65
2021/11/18 10:57:23;;;;;;;13.15;4.58;;;;;;;10.86;67.25;101132.68;1995096;89;27682;-65
2021/11/18 11:00:43;;;;;;;15.03;4.40;;;;;;;10.93;67.03;101136.86;1995045;89;28494;-64
2021/11/18 11:03:46;;;;;;;11.70;4.20;;;;;;;11.01;66.84;101137.46;1994535;89;31614;-64
2021/11/18 11:06:52;;;;;;;15.70;4.50;;;;;;;11.15;67.07;101149.46;1994730;89;33859;-64
2021/11/18 11:09:54;;;;;;;16.35;4.20;;;;;;;11.23;66.45;101150.92;1994917;89;29826;-65
2021/11/18 11:13:10;;;;;;;14.93;4.47;;;;;;;11.16;66.30;101137.36;1990421;89;27822;-65
2021/11/18 11:16:47;;;;;;;19.73;4.70;;;;;;;11.12;66.04;101126.33;1987612;89;28699;-64
2021/11/18 11:20:19;;;;;;;15.40;4.50;;;;;;;11.03;65.81;101128.01;1993337;89;32273;-64
2021/11/18 11:24:12;;;;;;;14.10;4.53;;;;;;;10.94;65.84;101154.70;2004559;86;34279;-64
2021/11/18 11:27:34;;;;;;;20.37;5.72;;;;;;;10.84;65.72;101147.46;2113000;84;30084;-65
2021/11/18 11:31:07;;;;;;;16.73;4.67;;;;;;;10.76;65.78;101150.42;2078082;85;27688;-65
2021/11/18 11:34:43;;;;;;;17.17;4.35;;;;;;;10.71;65.70;101153.77;2090829;85;29723;-65
2021/11/18 11:37:59;;;;;;;15.98;5.42;;;;;;;10.70;65.91;101164.52;2077945;85;31454;-65
2021/11/18 11:41:27;;;;;;;13.83;7.00;;;;;;;10.72;65.83;101167.58;2091050;85;33510;-66
2021/11/18 11:44:53;;;;;;;26.68;6.12;;;;;;;10.78;66.06;101155.75;2077004;85;29477;-67
2021/11/18 11:48:05;;;;;;;13.43;5.12;;;;;;;10.91;66.21;101150.34;2079190;84;27729;-66
2021/11/18 11:51:27;;;;;;;14.55;4.97;;;;;;;11.08;65.91;101143.47;2077315;85;28685;-67
2021/11/18 11:54:53;;;;;;;15.38;4.65;;;;;;;11.16;65.47;101137.36;2075916;85;31707;-66
2021/11/18 11:58:06;;;;;;;11.43;3.90;;;;;;;11.23;65.25;101132.63;2089605;82;33187;-66
2021/11/18 12:01:22;;;;;;;10.88;4.00;;;;;;;11.30;65.19;101126.55;2209585;80;29115;-66
2021/11/18 12:04:35;;;;;;;14.30;4.78;;;;;;;11.40;65.24;101124.78;2208605;80;27573;-66
2021/11/18 12:07:51;;;;;;;21.25;5.47;;;;;;;11.49;64.82;101108.78;2205530;80;29210;-67
2021/11/18 12:11:07;;;;;;;13.35;4.05;;;;;;;11.51;64.57;101122.13;2201811;79;32005;-66
2021/11/18 12:14:32;;;;;;;11.12;4.35;;;;;;;11.50;64.35;101125.75;2209398;80;33367;-67
2021/11/18 12:17:39;;;;;;;11.93;4.17;;;;;;;11.47;64.56;101125.86;2209280;80;29076;-66
2021/11/18 12:20:41;;;;;;;14.28;4.62;;;;;;;11.44;64.41;101113.91;2209344;80;27759;-67
2021/11/18 12:24:09;;;;;;;15.05;4.37;;;;;;;11.46;64.29;101114.72;2209387;80;28640;-66
2021/11/18 12:27:28;;;;;;;16.02;7.42;;;;;;;11.46;64.19;101118.30;2208763;80;31154;-67
2021/11/18 12:30:52;;;;;;;12.03;3.70;;;;;;;11.45;63.88;101122.36;2209216;78;33770;-66
2021/11/18 12:34:02;;;;;;;16.32;4.92;;;;;;;11.42;63.93;101112.64;2209707;80;29038;-66
2021/11/18 12:37:24;;;;;;;11.88;4.17;;;;;;;11.38;64.08;101103.84;2209239;79;27655;-66
2021/11/18 12:40:58;;;;;;;15.55;4.75;;;;;;;11.40;64.05;101095.72;2183031;80;29488;-66
2021/11/18 12:44:47;;;;;;;27.37;7.65;;;;;;;11.43;63.96;101092.92;2246995;79;31901;-66
2021/11/18 12:48:01;;;;;;;12.88;5.22;;;;;;;11.52;64.04;101087.66;2241770;79;33826;-65
2021/11/18 12:51:47;;;;;;;17.80;4.87;;;;;;;11.66;64.26;101082.58;2216768;80;29825;-65
2021/11/18 12:55:14;;;;;;;14.73;4.28;;;;;;;11.77;63.97;101075.88;2139422;83;27694;-67
2021/11/18 12:58:40;;;;;;;12.78;4.90;;;;;;;11.83;63.42;101080.52;2129104;83;30069;-66
2021/11/18 13:01:56;;;;;;;13.13;4.97;;;;;;;11.83;63.46;101073.81;2242870;79;31169;-66
2021/11/18 13:05:02;;;;;;;13.15;4.97;;;;;;;11.86;63.29;101071.00;2248889;79;32992;-66
2021/11/18 13:08:08;;;;;;;15.23;5.60;;;;;;;11.88;63.32;101066.03;2236434;79;29061;-66
2021/11/18 13:11:31;;;;;;;20.02;6.78;;;;;;;11.90;63.25;101065.50;2202031;79;27696;-67
2021/11/18 13:14:50;;;;;;;17.12;5.42;;;;;;;11.86;63.07;101070.14;2251091;78;29489;-66
2021/11/18 13:17:57;;;;;;;52.55;26.07;;;;;;;11.78;62.86;101069.12;2223445;78;31045;-66
2021/11/18 13:21:16;;;;;;;21.42;7.17;;;;;;;11.68;62.99;101083.40;2218658;78;33773;-66
2021/11/18 13:24:36;;;;;;;12.75;5.75;;;;;;;11.60;63.04;101064.04;2218916;80;29074;-66
2021/11/18 13:27:54;;;;;;;18.90;7.55;;;;;;;11.51;62.94;101084.56;2224379;78;27699;-66
2021/11/18 13:31:00;;;;;;;14.85;7.03;;;;;;;11.42;63.27;101084.47;2259356;78;30042;-65
2021/11/18 13:34:30;;;;;;;16.42;4.85;;;;;;;11.36;63.42;101070.84;2213872;80;31066;-65
2021/11/18 13:37:40;;;;;;;14.10;7.40;;;;;;;11.32;63.17;101073.23;2176371;81;33929;-65
2021/11/18 13:40:57;;;;;;;14.43;6.72;;;;;;;11.27;63.24;101083.75;2176256;81;28469;-65
2021/11/18 13:44:01;;;;;;;9.15;4.78;;;;;;;11.21;63.41;101092.91;2111991;83;28375;-66
2021/11/18 13:47:08;;;;;;;14.45;5.25;;;;;;;11.14;63.47;101092.28;2097081;84;28656;-66
2021/11/18 13:50:24;;;;;;;12.40;4.58;;;;;;;11.10;63.53;101099.55;2131276;83;31030;-66
2021/11/18 13:53:48;;;;;;;10.78;4.15;;;;;;;11.06;63.49;101098.40;2086100;85;33343;-66
2021/11/18 13:57:10;;;;;;;11.12;5.15;;;;;;;10.97;63.58;101098.77;2086348;85;30238;-65
2021/11/18 14:00:20;;;;;;;13.70;4.20;;;;;;;10.91;63.71;101091.84;2086278;85;27769;-64
2021/11/18 14:03:32;;;;;;;17.42;8.15;;;;;;;10.87;63.85;101104.95;2086534;85;29688;-64
2021/11/18 14:06:39;;;;;;;21.95;7.67;;;;;;;10.84;63.99;101122.48;2086306;85;30974;-63
2021/11/18 14:09:50;;;;;;;17.52;7.50;;;;;;;10.80;63.97;101124.41;2086216;83;48590;-64
2021/11/18 14:13:06;;;;;;;13.55;7.25;;;;;;;10.73;64.03;101117.06;2152432;82;29097;-65
2021/11/18 14:16:14;;;;;;;22.35;10.72;;;;;;;10.70;64.31;101111.81;2126638;83;28199;-64
2021/11/18 14:19:25;;;;;;;19.67;8.18;;;;;;;10.66;64.42;101102.13;2129027;83;29542;-63
2021/11/18 14:22:31;;;;;;;17.42;7.20;;;;;;;10.61;64.46;101084.00;2183278;81;32314;-64
2021/11/18 14:25:40;;;;;;;17.32;8.03;;;;;;;10.57;64.51;101089.95;2222670;80;32944;-64